createdAt,value
2024-02-24T00:00:26.038Z,5.82
2024-02-24T00:03:23.778Z,5.82
2024-02-24T00:05:57.690Z,5.81
2024-02-24T00:08:30.413Z,5.82
2024-02-24T00:11:03.110Z,5.82
2024-02-24T00:13:35.417Z,5.83
2024-02-24T00:16:09.736Z,5.83
2024-02-24T00:18:42.010Z,5.84
2024-02-24T00:21:14.585Z,5.84
2024-02-24T00:23:49.467Z,5.85
2024-02-24T00:26:21.792Z,5.86
2024-02-24T00:28:56.425Z,5.87
2024-02-24T00:31:30.908Z,5.89
2024-02-24T00:34:03.291Z,5.89
2024-02-24T00:36:36.373Z,5.90
2024-02-24T00:39:08.785Z,5.90
2024-02-24T00:41:44.177Z,5.91
2024-02-24T00:44:16.549Z,5.93
2024-02-24T00:46:50.949Z,5.93
2024-02-24T00:49:26.051Z,5.95
2024-02-24T00:52:00.094Z,5.98
2024-02-24T00:54:32.551Z,6.00
2024-02-24T00:57:05.427Z,6.02
2024-02-24T00:59:37.899Z,6.04
2024-02-24T01:02:10.816Z,6.06
2024-02-24T01:04:43.404Z,6.06
2024-02-24T01:07:17.043Z,6.07
2024-02-24T01:09:51.763Z,6.09
2024-02-24T01:12:24.681Z,6.10
2024-02-24T01:14:58.517Z,6.08
2024-02-24T01:17:31.444Z,6.12
2024-02-24T01:20:04.508Z,6.15
2024-02-24T01:22:36.942Z,6.16
2024-02-24T01:25:10.277Z,6.16
2024-02-24T01:27:47.014Z,6.18
2024-02-24T01:30:18.009Z,6.19
2024-02-24T01:32:57.849Z,6.19
2024-02-24T01:35:30.530Z,6.20
2024-02-24T01:38:05.075Z,6.20
2024-02-24T01:40:37.433Z,6.17
2024-02-24T01:43:26.618Z,6.19
2024-02-24T01:45:59.790Z,6.17
2024-02-24T01:48:35.090Z,6.17
2024-02-24T01:51:08.853Z,6.11
2024-02-24T01:53:42.783Z,6.15
2024-02-24T01:56:16.032Z,6.10
2024-02-24T01:58:48.774Z,6.04
2024-02-24T02:01:21.673Z,5.99
2024-02-24T02:03:58.320Z,5.95
2024-02-24T02:06:33.293Z,5.90
2024-02-24T02:09:06.028Z,5.86
2024-02-24T02:11:47.994Z,5.82
2024-02-24T02:14:29.341Z,5.77
2024-02-24T02:17:01.743Z,5.73
2024-02-24T02:19:34.189Z,5.67
2024-02-24T02:22:12.376Z,5.63
2024-02-24T02:24:47.269Z,5.58
2024-02-24T02:27:19.884Z,5.49
2024-02-24T02:29:52.202Z,5.50
2024-02-24T02:32:24.672Z,5.45
2024-02-24T02:34:59.767Z,5.40
2024-02-24T02:37:32.220Z,5.36
2024-02-24T02:40:05.295Z,5.32
2024-02-24T02:42:37.705Z,5.28
2024-02-24T02:45:11.339Z,5.23
2024-02-24T02:47:44.291Z,5.19
2024-02-24T02:50:17.236Z,5.16
2024-02-24T02:52:50.118Z,5.11
2024-02-24T02:55:22.473Z,5.08
2024-02-24T02:57:57.259Z,5.03
2024-02-24T03:00:31.869Z,5.00
2024-02-24T03:03:04.556Z,4.98
2024-02-24T03:05:39.102Z,4.95
2024-02-24T03:08:11.769Z,4.92
2024-02-24T03:10:44.315Z,4.86
2024-02-24T03:13:19.037Z,4.83
2024-02-24T03:15:51.460Z,4.78
2024-02-24T03:18:24.062Z,4.74
2024-02-24T03:20:56.534Z,4.70
2024-02-24T03:23:28.857Z,4.66
2024-02-24T03:26:03.444Z,4.62
2024-02-24T03:28:35.876Z,4.60
2024-02-24T03:31:08.482Z,4.58
2024-02-24T03:33:41.144Z,4.56
2024-02-24T03:36:17.286Z,4.54
2024-02-24T03:38:51.961Z,4.53
2024-02-24T03:41:26.540Z,4.52
2024-02-24T03:43:59.050Z,4.51
2024-02-24T03:46:31.312Z,4.49
2024-02-24T03:49:04.460Z,4.46
2024-02-24T03:51:43.821Z,4.47
2024-02-24T03:54:16.317Z,4.45
2024-02-24T03:56:51.225Z,4.44
2024-02-24T03:59:23.964Z,4.42
2024-02-24T04:01:56.863Z,4.41
2024-02-24T04:04:29.428Z,4.39
2024-02-24T04:07:01.828Z,4.37
2024-02-24T04:09:36.426Z,4.36
2024-02-24T04:12:09.542Z,4.35
2024-02-24T04:14:42.050Z,4.31
2024-02-24T04:17:14.681Z,4.28
2024-02-24T04:19:47.162Z,4.24
2024-02-24T04:22:20.394Z,4.21
2024-02-24T04:24:53.083Z,4.17
2024-02-24T04:27:30.100Z,4.16
2024-02-24T04:30:04.773Z,4.12
2024-02-24T04:32:37.096Z,4.09
2024-02-24T04:35:10.601Z,4.09
2024-02-24T04:37:43.010Z,4.06
2024-02-24T04:40:16.069Z,4.03
2024-02-24T04:42:48.649Z,4.00
2024-02-24T04:45:20.961Z,3.98
2024-02-24T04:47:55.784Z,3.94
2024-02-24T04:50:28.098Z,3.90
2024-02-24T04:53:04.132Z,3.85
2024-02-24T04:55:36.498Z,3.83
2024-02-24T04:58:09.159Z,3.78
2024-02-24T05:00:43.406Z,3.75
2024-02-24T05:03:15.946Z,3.72
2024-02-24T05:05:53.229Z,3.69
2024-02-24T05:08:27.877Z,3.67
2024-02-24T05:11:01.709Z,3.64
2024-02-24T05:13:34.105Z,3.59
2024-02-24T05:16:08.923Z,3.60
2024-02-24T05:18:41.346Z,3.58
2024-02-24T05:21:23.246Z,3.59
2024-02-24T05:23:55.621Z,3.58
2024-02-24T05:26:31.679Z,3.58
2024-02-24T05:29:04.097Z,3.57
2024-02-24T05:31:36.453Z,3.57
2024-02-24T05:34:13.230Z,3.58
2024-02-24T05:36:45.664Z,3.58
2024-02-24T05:39:17.960Z,3.58
2024-02-24T05:41:56.089Z,3.57
2024-02-24T05:44:28.467Z,3.56
2024-02-24T05:47:05.645Z,3.55
2024-02-24T05:49:37.949Z,3.55
2024-02-24T05:52:10.245Z,3.54
2024-02-24T05:54:44.233Z,3.54
2024-02-24T05:57:16.671Z,3.53
2024-02-24T05:59:48.907Z,3.54
2024-02-24T06:02:21.228Z,3.54
2024-02-24T06:04:56.065Z,3.53
2024-02-24T06:07:28.397Z,3.53
2024-02-24T06:10:00.660Z,3.53
2024-02-24T06:12:35.496Z,3.52
2024-02-24T06:15:08.891Z,3.52
2024-02-24T06:17:41.376Z,3.51
2024-02-24T06:20:15.043Z,3.49
2024-02-24T06:22:47.442Z,3.51
2024-02-24T06:25:20.113Z,3.50
2024-02-24T06:27:54.700Z,3.49
2024-02-24T06:30:27.192Z,3.48
2024-02-24T06:32:59.821Z,3.46
2024-02-24T06:35:34.933Z,3.45
2024-02-24T06:38:07.791Z,3.43
2024-02-24T06:40:45.643Z,3.41
2024-02-24T06:43:19.009Z,3.40
2024-02-24T06:45:51.362Z,3.38
2024-02-24T06:48:24.114Z,3.37
2024-02-24T06:50:56.598Z,3.37
2024-02-24T06:53:29.181Z,3.37
2024-02-24T06:56:08.175Z,3.37
2024-02-24T06:58:43.086Z,3.37
2024-02-24T07:01:22.346Z,3.36
2024-02-24T07:03:54.793Z,3.35
2024-02-24T07:06:30.924Z,3.35
2024-02-24T07:09:04.272Z,3.35
2024-02-24T07:11:38.925Z,3.38
2024-02-24T07:14:11.321Z,3.44
2024-02-24T07:16:44.166Z,3.49
2024-02-24T07:19:16.710Z,3.54
2024-02-24T07:21:48.966Z,3.58
2024-02-24T07:24:21.126Z,3.63
2024-02-24T07:26:53.305Z,3.67
2024-02-24T07:29:25.563Z,3.96
2024-02-24T07:31:57.738Z,4.26
2024-02-24T07:34:34.629Z,4.70
2024-02-24T07:37:10.398Z,5.16
2024-02-24T07:39:45.116Z,5.55
2024-02-24T07:42:18.953Z,5.85
2024-02-24T07:44:51.073Z,6.06
2024-02-24T07:47:25.674Z,6.18
2024-02-24T07:50:00.492Z,6.26
2024-02-24T07:52:32.661Z,6.36
2024-02-24T07:55:05.104Z,6.37
2024-02-24T07:57:40.781Z,6.52
2024-02-24T08:00:14.854Z,6.54
2024-02-24T08:02:49.557Z,6.62
2024-02-24T08:05:22.384Z,6.81
2024-02-24T08:07:55.236Z,7.13
2024-02-24T08:10:27.717Z,7.55
2024-02-24T08:13:02.178Z,8.09
2024-02-24T08:15:34.456Z,8.56
2024-02-24T08:18:08.117Z,9.05
2024-02-24T08:20:47.253Z,9.47
2024-02-24T08:23:22.604Z,9.61
2024-02-24T08:25:59.573Z,9.51
2024-02-24T08:28:32.277Z,9.52
2024-02-24T08:31:07.136Z,9.59
2024-02-24T08:33:43.525Z,9.53
2024-02-24T08:36:19.981Z,9.56
2024-02-24T08:38:52.589Z,9.61
2024-02-24T08:41:25.415Z,9.68
2024-02-24T08:43:57.780Z,9.89
2024-02-24T08:46:30.998Z,9.98
2024-02-24T08:49:03.570Z,10.03
2024-02-24T08:51:41.209Z,10.29
2024-02-24T08:54:21.873Z,10.74
2024-02-24T08:56:54.392Z,11.36
2024-02-24T08:59:26.765Z,12.03
2024-02-24T09:01:58.910Z,12.34
2024-02-24T09:04:31.124Z,12.46
2024-02-24T09:07:03.360Z,12.49
2024-02-24T09:09:36.329Z,12.41
2024-02-24T09:12:09.181Z,11.98
2024-02-24T09:14:41.347Z,11.51
2024-02-24T09:17:13.629Z,11.08
2024-02-24T09:19:47.667Z,10.68
2024-02-24T09:22:19.807Z,10.27
2024-02-24T09:24:51.932Z,9.93
2024-02-24T09:27:24.258Z,9.52
2024-02-24T09:29:56.449Z,9.20
2024-02-24T09:32:28.554Z,9.00
2024-02-24T09:35:00.794Z,8.92
2024-02-24T09:37:33.537Z,9.38
2024-02-24T09:40:09.156Z,9.85
2024-02-24T09:42:41.493Z,10.17
2024-02-24T09:45:17.163Z,10.42
2024-02-24T09:47:49.422Z,10.45
2024-02-24T09:50:21.769Z,10.29
2024-02-24T09:52:54.009Z,10.29
2024-02-24T09:55:26.325Z,10.35
2024-02-24T09:58:00.489Z,10.46
2024-02-24T10:00:32.992Z,10.50
2024-02-24T10:03:06.176Z,10.57
2024-02-24T10:05:41.389Z,10.62
2024-02-24T10:08:15.007Z,10.62
2024-02-24T10:10:47.564Z,10.77
2024-02-24T10:13:22.500Z,10.93
2024-02-24T10:15:54.842Z,10.93
2024-02-24T10:18:29.566Z,10.81
2024-02-24T10:21:04.684Z,10.87
2024-02-24T10:23:39.636Z,10.89
2024-02-24T10:26:14.828Z,10.95
2024-02-24T10:28:47.127Z,11.05
2024-02-24T10:31:20.747Z,11.14
2024-02-24T10:33:55.125Z,11.18
2024-02-24T10:36:30.267Z,11.07
2024-02-24T10:39:05.136Z,10.95
2024-02-24T10:41:40.247Z,10.75
2024-02-24T10:44:22.207Z,10.59
2024-02-24T10:46:58.588Z,10.54
2024-02-24T10:49:31.198Z,10.44
2024-02-24T10:52:03.949Z,10.48
2024-02-24T10:54:39.625Z,10.47
2024-02-24T10:57:12.671Z,10.34
2024-02-24T10:59:45.481Z,10.44
2024-02-24T11:02:18.841Z,10.53
2024-02-24T11:04:52.944Z,10.51
2024-02-24T11:07:25.248Z,10.39
2024-02-24T11:09:58.090Z,10.26
2024-02-24T11:12:34.491Z,10.23
2024-02-24T11:15:07.239Z,10.30
2024-02-24T11:17:56.789Z,10.38
2024-02-24T11:20:56.785Z,10.47
2024-02-24T11:23:34.309Z,10.56
2024-02-24T11:26:34.655Z,10.57
2024-02-24T11:29:11.880Z,10.59
2024-02-24T11:31:46.943Z,10.64
2024-02-24T11:34:22.374Z,10.63
2024-02-24T11:36:57.006Z,10.68
2024-02-24T11:39:30.498Z,10.64
2024-02-24T11:42:03.092Z,10.55
2024-02-24T11:44:35.514Z,10.56
2024-02-24T11:47:08.536Z,10.68
2024-02-24T11:49:50.507Z,10.66
2024-02-24T11:52:23.110Z,10.58
2024-02-24T11:55:00.016Z,10.57
2024-02-24T11:57:35.092Z,10.61
2024-02-24T12:00:10.142Z,10.68
2024-02-24T12:02:42.495Z,10.70
2024-02-24T12:05:18.554Z,10.70
2024-02-24T12:07:51.415Z,10.71
2024-02-24T12:10:24.155Z,10.62
2024-02-24T12:12:56.789Z,10.53
2024-02-24T12:15:29.148Z,10.62
2024-02-24T12:18:02.878Z,10.75
2024-02-24T12:20:37.684Z,10.89
2024-02-24T12:23:11.704Z,11.03
2024-02-24T12:25:45.168Z,11.07
2024-02-24T12:28:20.277Z,11.11
2024-02-24T12:30:55.190Z,11.16
2024-02-24T12:33:29.456Z,11.18
2024-02-24T12:36:08.228Z,11.25
2024-02-24T12:38:41.659Z,11.32
2024-02-24T12:41:16.239Z,11.37
2024-02-24T12:43:48.689Z,11.32
2024-02-24T12:46:23.658Z,11.27
2024-02-24T12:48:58.574Z,11.32
2024-02-24T12:51:31.370Z,11.34
2024-02-24T12:54:06.928Z,11.35
2024-02-24T12:56:39.185Z,11.35
2024-02-24T12:59:13.379Z,11.36
2024-02-24T13:01:46.063Z,11.43
2024-02-24T13:04:18.550Z,11.52
2024-02-24T13:06:52.980Z,11.53
2024-02-24T13:09:25.933Z,11.58
2024-02-24T13:11:58.588Z,11.61
2024-02-24T13:14:31.120Z,11.62
2024-02-24T13:17:04.674Z,11.54
2024-02-24T13:19:37.076Z,11.51
2024-02-24T13:22:12.788Z,11.46
2024-02-24T13:24:47.567Z,11.42
2024-02-24T13:27:22.125Z,11.41
2024-02-24T13:29:55.517Z,11.40
2024-02-24T13:32:28.241Z,11.38
2024-02-24T13:35:00.906Z,11.35
2024-02-24T13:37:33.432Z,11.26
2024-02-24T13:40:07.963Z,11.24
2024-02-24T13:42:40.536Z,11.16
2024-02-24T13:45:13.391Z,10.98
2024-02-24T13:47:46.862Z,10.87
2024-02-24T13:50:23.842Z,10.77
2024-02-24T13:52:56.290Z,10.73
2024-02-24T13:55:28.571Z,10.81
2024-02-24T13:58:04.297Z,10.85
2024-02-24T14:00:37.215Z,10.82
2024-02-24T14:03:11.121Z,10.83
2024-02-24T14:05:43.740Z,10.87
2024-02-24T14:08:18.360Z,10.80
2024-02-24T14:10:53.710Z,10.74
2024-02-24T14:13:28.969Z,10.68
2024-02-24T14:16:03.010Z,10.64
2024-02-24T14:18:36.883Z,10.67
2024-02-24T14:21:09.720Z,10.71
2024-02-24T14:23:42.243Z,10.74
2024-02-24T14:26:15.386Z,10.81
2024-02-24T14:29:00.563Z,10.85
2024-02-24T14:31:34.266Z,10.85
2024-02-24T14:34:06.943Z,10.80
2024-02-24T14:36:39.666Z,10.75
2024-02-24T14:39:14.204Z,10.63
2024-02-24T14:41:48.982Z,10.63
2024-02-24T14:44:21.872Z,10.68
2024-02-24T14:47:00.583Z,10.68
2024-02-24T14:49:32.918Z,10.81
2024-02-24T14:52:09.981Z,10.90
2024-02-24T14:54:44.734Z,10.98
2024-02-24T14:57:17.185Z,10.95
2024-02-24T14:59:49.674Z,10.91
2024-02-24T15:02:35.389Z,10.90
2024-02-24T15:05:15.127Z,10.86
2024-02-24T15:07:49.709Z,10.81
2024-02-24T15:10:22.741Z,10.74
2024-02-24T15:12:58.283Z,10.61
2024-02-24T15:15:30.726Z,10.53
2024-02-24T15:18:06.199Z,10.44
2024-02-24T15:20:38.663Z,10.36
2024-02-24T15:23:10.913Z,10.37
2024-02-24T15:25:45.600Z,10.54
2024-02-24T15:28:22.323Z,10.63
2024-02-24T15:30:54.939Z,10.62
2024-02-24T15:33:27.260Z,10.67
2024-02-24T15:36:00.868Z,10.75
2024-02-24T15:38:33.275Z,10.83
2024-02-24T15:41:05.911Z,10.85
2024-02-24T15:43:39.297Z,10.75
2024-02-24T15:46:11.506Z,10.76
2024-02-24T15:48:44.194Z,10.59
2024-02-24T15:51:18.879Z,10.36
2024-02-24T15:53:55.898Z,10.24
2024-02-24T15:56:30.719Z,10.24
2024-02-24T15:59:05.030Z,10.51
2024-02-24T16:01:37.492Z,10.67
2024-02-24T16:04:12.269Z,10.71
2024-02-24T16:06:48.650Z,10.62
2024-02-24T16:09:25.304Z,10.52
2024-02-24T16:15:39.111Z,10.24
2024-02-24T16:21:34.477Z,9.81
2024-02-24T16:24:07.231Z,9.58
2024-02-24T16:26:40.010Z,9.40
2024-02-24T16:29:12.288Z,9.18
2024-02-24T16:31:44.466Z,8.96
2024-02-24T16:34:16.876Z,8.70
2024-02-24T16:36:49.356Z,8.45
2024-02-24T16:39:23.523Z,8.26
2024-02-24T16:41:56.540Z,8.13
2024-02-24T16:44:31.252Z,8.06
2024-02-24T16:47:03.489Z,8.00
2024-02-24T16:49:35.896Z,7.95
2024-02-24T16:52:08.760Z,7.83
2024-02-24T16:54:43.673Z,7.76
2024-02-24T16:57:18.324Z,7.64
2024-02-24T16:59:51.076Z,7.53
2024-02-24T17:02:23.274Z,7.43
2024-02-24T17:04:58.131Z,7.34
2024-02-24T17:07:30.789Z,7.25
2024-02-24T17:10:03.529Z,7.19
2024-02-24T17:12:36.249Z,7.11
2024-02-24T17:15:11.722Z,7.07
2024-02-24T17:17:47.750Z,7.02
2024-02-24T17:20:22.698Z,6.95
2024-02-24T17:22:55.523Z,6.92
2024-02-24T17:25:30.688Z,6.88
2024-02-24T17:28:07.600Z,6.81
2024-02-24T17:30:42.405Z,6.76
2024-02-24T17:33:14.937Z,6.70
2024-02-24T17:35:47.533Z,6.63
2024-02-24T17:38:23.591Z,6.60
2024-02-24T17:41:01.238Z,6.52
2024-02-24T17:43:34.686Z,6.43
2024-02-24T17:46:07.569Z,6.35
2024-02-24T17:48:40.040Z,6.28
2024-02-24T17:51:12.820Z,6.18
2024-02-24T17:53:45.478Z,6.14
2024-02-24T17:56:20.213Z,6.06
2024-02-24T17:58:52.821Z,6.00
2024-02-24T18:01:25.220Z,5.94
2024-02-24T18:03:59.444Z,5.89
2024-02-24T18:06:32.427Z,5.86
2024-02-24T18:09:05.159Z,5.82
2024-02-24T18:11:37.490Z,5.79
2024-02-24T18:14:09.655Z,5.76
2024-02-24T18:16:42.302Z,5.73
2024-02-24T18:19:14.677Z,5.69
2024-02-24T18:21:47.462Z,5.66
2024-02-24T18:24:20.147Z,5.61
2024-02-24T18:26:52.640Z,5.58
2024-02-24T18:29:24.858Z,5.54
2024-02-24T18:31:58.012Z,5.48
2024-02-24T18:34:32.764Z,5.44
2024-02-24T18:37:05.640Z,5.41
2024-02-24T18:39:44.212Z,5.37
2024-02-24T18:42:17.561Z,5.34
2024-02-24T18:44:50.768Z,5.33
2024-02-24T18:47:23.932Z,5.31
2024-02-24T18:49:59.372Z,5.28
2024-02-24T18:52:36.289Z,5.26
2024-02-24T18:55:10.269Z,5.24
2024-02-24T18:57:45.228Z,5.22
2024-02-24T19:00:19.232Z,5.20
2024-02-24T19:02:54.934Z,5.17
2024-02-24T19:05:30.675Z,5.14
2024-02-24T19:08:08.354Z,5.09
2024-02-24T19:10:43.032Z,5.03
2024-02-24T19:13:18.192Z,4.99
2024-02-24T19:15:53.675Z,4.94
2024-02-24T19:18:34.822Z,4.88
2024-02-24T19:21:08.154Z,4.84
2024-02-24T19:23:40.524Z,4.77
2024-02-24T19:26:12.826Z,4.70
2024-02-24T19:28:45.348Z,4.59
2024-02-24T19:31:17.624Z,4.57
2024-02-24T19:33:50.076Z,4.51
2024-02-24T19:36:22.662Z,4.43
2024-02-24T19:39:10.487Z,4.38
2024-02-24T19:41:48.856Z,4.32
2024-02-24T19:44:23.870Z,4.24
2024-02-24T19:46:56.886Z,4.20
2024-02-24T19:49:31.640Z,4.13
2024-02-24T19:52:07.091Z,4.07
2024-02-24T19:54:40.187Z,4.01
2024-02-24T19:57:12.412Z,3.95
2024-02-24T19:59:47.468Z,3.90
2024-02-24T20:02:19.811Z,3.79
2024-02-24T20:04:52.150Z,3.80
2024-02-24T20:07:27.754Z,3.73
2024-02-24T20:10:00.361Z,3.68
2024-02-24T20:12:36.053Z,3.64
2024-02-24T20:15:09.401Z,3.61
2024-02-24T20:17:41.721Z,3.56
2024-02-24T20:20:15.458Z,3.52
2024-02-24T20:22:47.708Z,3.46
2024-02-24T20:25:20.747Z,3.39
2024-02-24T20:27:53.279Z,3.39
2024-02-24T20:30:25.884Z,3.36
2024-02-24T20:33:00.549Z,3.32
2024-02-24T20:35:35.525Z,3.28
2024-02-24T20:38:08.153Z,3.25
2024-02-24T20:40:42.724Z,3.22
2024-02-24T20:43:15.196Z,3.20
2024-02-24T20:45:47.613Z,3.18
2024-02-24T20:48:22.622Z,3.13
2024-02-24T20:50:55.197Z,3.12
2024-02-24T20:53:28.166Z,3.09
2024-02-24T20:56:05.790Z,3.05
2024-02-24T20:58:39.778Z,3.02
2024-02-24T21:01:12.165Z,2.99
2024-02-24T21:03:46.998Z,2.95
2024-02-24T21:06:19.444Z,2.91
2024-02-24T21:08:51.989Z,2.86
2024-02-24T21:11:24.856Z,2.82
2024-02-24T21:13:59.752Z,2.78
2024-02-24T21:16:32.593Z,2.75
2024-02-24T21:19:09.745Z,2.73
2024-02-24T21:21:42.422Z,2.71
2024-02-24T21:24:15.012Z,2.69
2024-02-24T21:26:49.088Z,2.66
2024-02-24T21:29:21.573Z,2.65
2024-02-24T21:31:55.147Z,2.65
2024-02-24T21:34:31.484Z,2.66
2024-02-24T21:37:03.842Z,2.66
2024-02-24T21:39:36.344Z,2.66
2024-02-24T21:42:10.521Z,2.63
2024-02-24T21:44:45.457Z,2.66
2024-02-24T21:47:20.023Z,2.65
2024-02-24T21:49:52.238Z,2.66
2024-02-24T21:52:24.877Z,2.68
2024-02-24T21:54:57.320Z,2.69
2024-02-24T21:57:33.269Z,2.70
2024-02-24T22:00:16.687Z,2.70
2024-02-24T22:02:50.099Z,2.69
2024-02-24T22:05:25.188Z,2.67
2024-02-24T22:08:00.309Z,2.65
2024-02-24T22:10:32.647Z,2.62
2024-02-24T22:13:06.450Z,2.60
2024-02-24T22:15:41.296Z,2.57
2024-02-24T22:18:16.008Z,2.55
2024-02-24T22:20:51.934Z,2.51
2024-02-24T22:23:24.636Z,2.49
2024-02-24T22:25:57.285Z,2.46
2024-02-24T22:28:29.774Z,2.45
2024-02-24T22:31:02.160Z,2.44
2024-02-24T22:33:35.000Z,2.44
2024-02-24T22:36:08.653Z,2.43
2024-02-24T22:38:41.060Z,2.41
2024-02-24T22:41:21.708Z,2.40
2024-02-24T22:43:56.352Z,2.38
2024-02-24T22:46:31.897Z,2.36
2024-02-24T22:49:04.569Z,2.33
2024-02-24T22:51:41.690Z,2.31
2024-02-24T22:54:14.341Z,2.27
2024-02-24T22:56:46.860Z,2.24
2024-02-24T22:59:19.079Z,2.20
2024-02-24T23:01:51.509Z,2.16
2024-02-24T23:04:24.128Z,2.13
2024-02-24T23:06:56.665Z,2.08
2024-02-24T23:09:29.039Z,2.04
2024-02-24T23:12:04.008Z,2.00
2024-02-24T23:14:36.929Z,1.94
2024-02-24T23:17:09.895Z,1.91
2024-02-24T23:19:42.796Z,1.87
2024-02-24T23:22:17.594Z,1.82
2024-02-24T23:24:49.954Z,1.79
2024-02-24T23:27:22.288Z,1.77
2024-02-24T23:29:57.101Z,1.74
2024-02-24T23:32:32.121Z,1.70
2024-02-24T23:35:04.846Z,1.67
2024-02-24T23:37:37.394Z,1.63
2024-02-24T23:40:11.331Z,1.60
2024-02-24T23:42:46.007Z,1.56
2024-02-24T23:45:18.497Z,1.52
2024-02-24T23:47:51.002Z,1.49
2024-02-24T23:50:23.413Z,1.46
2024-02-24T23:52:55.740Z,1.43
2024-02-24T23:55:28.274Z,1.41
2024-02-24T23:58:02.972Z,1.39
